createdAt,value
2019-06-01T00:00:46.248Z,15.53
2019-06-01T00:03:13.853Z,14.03
2019-06-01T00:05:42.763Z,14.37
2019-06-01T00:08:11.663Z,15.53
2019-06-01T00:10:41.058Z,14.63
2019-06-01T00:13:09.481Z,14.77
2019-06-01T00:15:38.427Z,14.60
2019-06-01T00:18:07.408Z,14.30
2019-06-01T00:20:36.340Z,14.83
2019-06-01T00:23:05.246Z,14.63
2019-06-01T00:25:34.175Z,14.87
2019-06-01T00:28:03.060Z,16.75
2019-06-01T00:30:31.989Z,14.37
2019-06-01T00:33:00.899Z,13.90
2019-06-01T00:35:29.798Z,14.20
2019-06-01T00:37:58.717Z,13.13
2019-06-01T00:40:27.620Z,13.77
2019-06-01T00:42:56.537Z,12.57
2019-06-01T00:45:25.417Z,13.83
2019-06-01T00:47:54.338Z,13.90
2019-06-01T00:50:23.216Z,15.53
2019-06-01T00:52:53.199Z,14.13
2019-06-01T00:55:21.032Z,14.70
2019-06-01T00:57:49.930Z,14.57
2019-06-01T01:00:18.830Z,13.90
2019-06-01T01:02:48.031Z,14.60
2019-06-01T01:05:17.366Z,13.70
2019-06-01T01:07:46.645Z,13.87
2019-06-01T01:10:15.168Z,13.83
2019-06-01T01:13:01.799Z,14.90
2019-06-01T01:15:30.699Z,15.60
2019-06-01T01:17:59.632Z,14.67
2019-06-01T01:20:28.515Z,15.00
2019-06-01T01:22:57.441Z,15.00
2019-06-01T01:25:26.355Z,14.13
2019-06-01T01:27:55.221Z,14.40
2019-06-01T01:30:24.118Z,14.17
2019-06-01T01:32:53.570Z,14.80
2019-06-01T01:35:21.912Z,15.87
2019-06-01T01:37:51.961Z,15.03
2019-06-01T01:40:19.709Z,15.57
2019-06-01T01:42:48.858Z,17.80
2019-06-01T01:45:17.531Z,15.23
2019-06-01T01:47:46.440Z,15.87
2019-06-01T01:50:15.344Z,16.27
2019-06-01T01:52:44.247Z,14.97
2019-06-01T01:55:13.178Z,15.37
2019-06-01T01:57:42.085Z,15.07
2019-06-01T02:00:11.000Z,15.07
2019-06-01T02:02:39.931Z,14.40
2019-06-01T02:05:08.938Z,14.37
2019-06-01T02:07:37.864Z,14.13
2019-06-01T02:10:06.852Z,14.00
2019-06-01T02:12:35.785Z,13.97
2019-06-01T02:15:05.290Z,13.87
2019-06-01T02:17:34.212Z,13.43
2019-06-01T02:20:03.142Z,13.93
2019-06-01T02:22:32.040Z,12.70
2019-06-01T02:25:02.082Z,13.57
2019-06-01T02:27:29.862Z,13.23
2019-06-01T02:29:59.350Z,13.57
2019-06-01T02:32:27.708Z,13.93
2019-06-01T02:34:58.426Z,14.70
2019-06-01T02:37:25.498Z,15.60
2019-06-01T02:39:54.486Z,16.13
2019-06-01T02:42:23.285Z,16.33
2019-06-01T02:44:52.170Z,17.03
2019-06-01T02:47:21.081Z,16.97
2019-06-01T02:49:49.997Z,16.40
2019-06-01T02:52:18.932Z,17.63
2019-06-01T02:54:47.814Z,21.05
2019-06-01T02:57:16.695Z,18.87
2019-06-01T02:59:45.617Z,18.73
2019-06-01T03:02:15.131Z,16.77
2019-06-01T03:04:43.485Z,15.67
2019-06-01T03:07:12.390Z,15.73
2019-06-01T03:09:41.297Z,15.63
2019-06-01T03:12:10.732Z,15.43
2019-06-01T03:14:39.935Z,15.10
2019-06-01T03:17:09.846Z,17.93
2019-06-01T03:19:38.628Z,18.47
2019-06-01T03:22:08.624Z,18.70
2019-06-01T03:24:36.791Z,15.27
2019-06-01T03:27:06.347Z,16.50
2019-06-01T03:29:34.797Z,16.80
2019-06-01T03:32:23.979Z,16.23
2019-06-01T03:34:32.658Z,14.87
2019-06-01T03:37:02.789Z,14.97
2019-06-01T03:39:30.566Z,14.80
2019-06-01T03:41:59.478Z,15.20
2019-06-01T03:44:28.379Z,15.47
2019-06-01T03:46:57.298Z,15.73
2019-06-01T03:49:26.219Z,14.87
2019-06-01T03:51:55.099Z,15.37
2019-06-01T03:54:24.013Z,14.60
2019-06-01T03:56:52.901Z,14.93
2019-06-01T03:59:21.807Z,15.60
2019-06-01T04:01:50.733Z,14.73
2019-06-01T04:04:19.636Z,18.07
2019-06-01T04:06:48.581Z,17.17
2019-06-01T04:09:17.483Z,16.63
2019-06-01T04:11:46.404Z,19.92
2019-06-01T04:14:15.300Z,19.20
2019-06-01T04:16:44.237Z,15.40
2019-06-01T04:19:13.155Z,16.13
2019-06-01T04:21:42.089Z,16.93
2019-06-01T04:24:12.198Z,21.23
2019-06-01T04:26:39.901Z,18.73
2019-06-01T04:29:10.271Z,20.33
2019-06-01T04:31:37.876Z,23.37
2019-06-01T04:34:06.882Z,24.80
2019-06-01T04:36:35.803Z,27.47
2019-06-01T04:39:07.337Z,22.87
2019-06-01T04:41:35.375Z,22.97
2019-06-01T04:44:04.396Z,23.20
2019-06-01T04:46:33.291Z,25.33
2019-06-01T04:49:02.202Z,22.07
2019-06-01T04:51:31.118Z,24.20
2019-06-01T04:54:00.009Z,24.00
2019-06-01T04:56:28.918Z,23.33
2019-06-01T04:58:57.801Z,28.10
2019-06-01T05:01:26.707Z,28.00
2019-06-01T05:03:55.609Z,29.40
2019-06-01T05:06:24.488Z,30.50
2019-06-01T05:08:53.409Z,30.90
2019-06-01T05:11:22.290Z,30.07
2019-06-01T05:13:51.182Z,29.17
2019-06-01T05:16:20.094Z,30.30
2019-06-01T05:18:49.000Z,28.83
2019-06-01T05:21:17.907Z,28.73
2019-06-01T05:23:46.824Z,29.07
2019-06-01T05:26:17.038Z,27.57
2019-06-01T05:28:44.668Z,26.77
2019-06-01T05:31:21.953Z,27.03
2019-06-01T05:33:42.519Z,26.47
2019-06-01T05:36:12.004Z,26.00
2019-06-01T05:38:40.308Z,24.50
2019-06-01T05:41:10.348Z,27.37
2019-06-01T05:43:38.197Z,24.67
2019-06-01T05:46:07.226Z,23.77
2019-06-01T05:48:36.129Z,23.37
2019-06-01T05:51:05.279Z,24.37
2019-06-01T05:53:34.219Z,22.93
2019-06-01T05:56:03.125Z,23.00
2019-06-01T05:58:32.031Z,22.77
2019-06-01T06:01:00.921Z,22.83
2019-06-01T06:03:39.870Z,22.03
2019-06-01T06:05:58.747Z,21.57
2019-06-01T06:08:27.657Z,22.10
2019-06-01T06:10:56.563Z,22.23
2019-06-01T06:13:25.443Z,21.97
2019-06-01T06:15:54.342Z,22.83
2019-06-01T06:18:23.230Z,21.13
2019-06-01T06:20:52.138Z,21.90
2019-06-01T06:23:21.034Z,21.23
2019-06-01T06:25:49.956Z,21.00
2019-06-01T06:28:18.887Z,19.98
2019-06-01T06:30:47.757Z,20.27
2019-06-01T06:33:17.375Z,18.40
2019-06-01T06:35:45.556Z,18.25
2019-06-01T06:38:15.596Z,16.37
2019-06-01T06:40:43.342Z,16.87
2019-06-01T06:43:21.775Z,16.40
2019-06-01T06:45:41.177Z,15.30
2019-06-01T06:48:10.122Z,14.55
2019-06-01T06:50:39.010Z,14.58
2019-06-01T06:53:08.020Z,14.50
2019-06-01T06:55:36.867Z,14.18
2019-06-01T06:58:05.867Z,14.43
2019-06-01T07:00:34.804Z,14.18
2019-06-01T07:03:03.803Z,14.63
2019-06-01T07:05:32.723Z,14.53
2019-06-01T07:08:01.591Z,13.83
2019-06-01T07:10:30.505Z,13.98
2019-06-01T07:12:59.400Z,15.70
2019-06-01T07:15:28.294Z,14.70
2019-06-01T07:17:57.199Z,14.98
2019-06-01T07:20:26.114Z,13.38
2019-06-01T07:22:55.021Z,13.75
2019-06-01T07:25:24.745Z,13.90
2019-06-01T07:27:52.817Z,12.98
2019-06-01T07:30:22.227Z,12.05
2019-06-01T07:32:50.655Z,11.88
2019-06-01T07:35:20.497Z,10.60
2019-06-01T07:37:48.441Z,11.12
2019-06-01T07:40:17.348Z,11.88
2019-06-01T07:42:46.226Z,11.33
2019-06-01T07:45:15.110Z,11.20
2019-06-01T07:47:44.034Z,11.63
2019-06-01T07:50:12.937Z,11.00
2019-06-01T07:52:41.843Z,9.68
2019-06-01T07:55:10.797Z,9.55
2019-06-01T07:57:43.038Z,10.60
2019-06-01T08:00:08.735Z,10.32
2019-06-01T08:02:37.636Z,11.10
2019-06-01T08:05:06.656Z,9.10
2019-06-01T08:07:35.498Z,8.73
2019-06-01T08:10:04.682Z,10.05
2019-06-01T08:12:33.579Z,10.03
2019-06-01T08:15:02.524Z,9.98
2019-06-01T08:17:32.241Z,9.23
2019-06-01T08:20:00.318Z,9.43
2019-06-01T08:22:30.073Z,10.00
2019-06-01T08:24:58.127Z,9.48
2019-06-01T08:27:27.029Z,9.65
2019-06-01T08:29:55.920Z,9.53
2019-06-01T08:32:24.832Z,9.50
2019-06-01T08:35:07.321Z,10.35
2019-06-01T08:37:23.469Z,10.72
2019-06-01T08:39:51.535Z,9.35
2019-06-01T08:42:20.445Z,9.90
2019-06-01T08:44:49.336Z,10.70
2019-06-01T08:47:18.248Z,9.60
2019-06-01T08:49:47.131Z,10.85
2019-06-01T08:52:16.036Z,9.58
2019-06-01T08:54:44.934Z,11.75
2019-06-01T08:57:13.848Z,12.25
2019-06-01T08:59:42.727Z,7.33
2019-06-01T09:02:11.622Z,6.45
2019-06-01T09:04:40.526Z,6.53
2019-06-01T09:07:09.436Z,5.62
2019-06-01T09:09:38.317Z,5.03
2019-06-01T09:12:07.363Z,5.17
2019-06-01T09:14:36.245Z,6.03
2019-06-01T09:17:05.336Z,5.75
2019-06-01T09:19:35.591Z,5.22
2019-06-01T09:22:03.249Z,5.67
2019-06-01T09:24:32.138Z,5.50
2019-06-01T09:27:01.050Z,5.60
2019-06-01T09:29:30.140Z,5.90
2019-06-01T09:31:58.847Z,5.50
2019-06-01T09:34:28.414Z,6.28
2019-06-01T09:36:56.628Z,5.50
2019-06-01T09:39:26.634Z,5.67
2019-06-01T09:41:54.415Z,6.78
2019-06-01T09:44:23.313Z,6.10
2019-06-01T09:46:52.194Z,5.50
2019-06-01T09:49:21.099Z,5.67
2019-06-01T09:51:49.979Z,5.12
2019-06-01T09:54:18.882Z,4.80
2019-06-01T09:56:47.756Z,4.10
2019-06-01T09:59:16.654Z,5.12
2019-06-01T10:01:45.609Z,4.83
2019-06-01T10:04:14.436Z,4.87
2019-06-01T10:06:43.327Z,5.60
2019-06-01T10:09:12.230Z,4.60
2019-06-01T10:11:42.374Z,4.55
2019-06-01T10:14:10.035Z,5.05
2019-06-01T10:16:39.147Z,4.92
2019-06-01T10:19:07.973Z,6.12
2019-06-01T10:21:37.957Z,4.65
2019-06-01T10:24:05.806Z,5.72
2019-06-01T10:26:35.748Z,5.22
2019-06-01T10:29:03.711Z,4.83
2019-06-01T10:31:32.669Z,5.65
2019-06-01T10:34:02.095Z,5.33
2019-06-01T10:36:31.913Z,5.03
2019-06-01T10:39:03.580Z,4.80
2019-06-01T10:41:33.230Z,4.55
2019-06-01T10:44:02.099Z,5.00
2019-06-01T10:46:31.927Z,5.95
2019-06-01T10:49:11.329Z,4.90
2019-06-01T10:51:40.535Z,4.40
2019-06-01T10:54:09.708Z,4.95
2019-06-01T10:56:40.553Z,4.75
2019-06-01T10:59:08.874Z,6.03
2019-06-01T11:01:40.919Z,6.28
2019-06-01T11:04:12.007Z,5.25
2019-06-01T11:06:46.667Z,5.33
2019-06-01T11:09:13.364Z,6.20
2019-06-01T11:11:43.223Z,6.00
2019-06-01T11:14:16.821Z,6.95
2019-06-01T11:16:45.897Z,6.40
2019-06-01T11:19:15.171Z,5.47
2019-06-01T11:21:44.382Z,4.92
2019-06-01T11:24:13.839Z,5.47
2019-06-01T11:26:43.881Z,4.90
2019-06-01T11:29:12.266Z,4.42
2019-06-01T11:31:42.174Z,4.55
2019-06-01T11:34:13.167Z,7.05
2019-06-01T11:37:03.648Z,6.22
2019-06-01T11:39:14.192Z,6.37
2019-06-01T11:41:46.079Z,6.97
2019-06-01T11:44:15.340Z,5.25
2019-06-01T11:46:45.164Z,6.70
2019-06-01T11:49:13.620Z,7.67
2019-06-01T11:51:43.329Z,7.97
2019-06-01T11:54:11.696Z,8.53
2019-06-01T11:56:45.522Z,8.63
2019-06-01T11:59:13.898Z,7.25
2019-06-01T12:01:46.034Z,6.95
2019-06-01T12:04:12.508Z,8.35
2019-06-01T12:06:42.072Z,7.55
2019-06-01T12:09:10.809Z,7.95
2019-06-01T12:11:44.141Z,7.10
2019-06-01T12:14:11.823Z,7.97
2019-06-01T12:16:42.283Z,7.95
2019-06-01T12:19:10.522Z,7.47
2019-06-01T12:21:42.919Z,12.60
2019-06-01T12:24:11.435Z,7.12
2019-06-01T12:26:41.343Z,10.30
2019-06-01T12:29:09.758Z,8.93
2019-06-01T12:31:39.639Z,7.95
2019-06-01T12:34:08.467Z,7.28
2019-06-01T12:36:39.388Z,9.78
2019-06-01T12:39:08.293Z,8.43
2019-06-01T12:41:43.508Z,7.78
2019-06-01T12:44:15.687Z,10.70
2019-06-01T12:46:44.978Z,11.95
2019-06-01T12:49:14.161Z,8.28
2019-06-01T12:51:44.563Z,6.45
2019-06-01T12:54:12.624Z,5.20
2019-06-01T12:56:42.822Z,7.70
2019-06-01T12:59:11.151Z,8.13
2019-06-01T13:01:41.019Z,5.45
2019-06-01T13:04:09.536Z,8.00
2019-06-01T13:06:44.632Z,9.38
2019-06-01T13:09:15.487Z,8.88
2019-06-01T13:11:45.246Z,9.58
2019-06-01T13:14:16.332Z,9.38
2019-06-01T13:16:56.945Z,6.20
2019-06-01T13:19:18.751Z,6.08
2019-06-01T13:21:51.733Z,5.92
2019-06-01T13:24:22.642Z,5.55
2019-06-01T13:26:54.744Z,5.83
2019-06-01T13:29:26.667Z,7.58
2019-06-01T13:31:55.883Z,7.53
2019-06-01T13:34:25.067Z,7.80
2019-06-01T13:36:54.446Z,6.40
2019-06-01T13:39:23.929Z,5.83
2019-06-01T13:41:53.459Z,6.28
2019-06-01T13:44:22.229Z,6.70
2019-06-01T13:46:52.035Z,5.90
2019-06-01T13:49:21.081Z,7.08
2019-06-01T13:51:52.796Z,5.05
2019-06-01T13:54:25.537Z,5.60
2019-06-01T13:57:00.911Z,6.15
2019-06-01T13:59:36.125Z,5.92
2019-06-01T14:02:05.684Z,5.95
2019-06-01T14:04:34.913Z,4.40
2019-06-01T14:07:04.836Z,5.90
2019-06-01T14:09:33.970Z,6.60
2019-06-01T14:12:03.330Z,6.00
2019-06-01T14:14:35.153Z,6.87
2019-06-01T14:17:07.447Z,4.40
2019-06-01T14:19:36.576Z,6.53
2019-06-01T14:22:05.751Z,5.90
2019-06-01T14:24:35.012Z,6.47
2019-06-01T14:27:06.065Z,5.00
2019-06-01T14:29:33.773Z,4.33
2019-06-01T14:32:03.006Z,5.45
2019-06-01T14:34:32.281Z,5.92
2019-06-01T14:37:04.428Z,5.70
2019-06-01T14:39:33.864Z,5.17
2019-06-01T14:42:08.976Z,4.83
2019-06-01T14:44:37.913Z,4.90
2019-06-01T14:47:07.395Z,3.67
2019-06-01T14:49:39.586Z,4.10
2019-06-01T14:52:08.783Z,3.83
2019-06-01T14:54:37.907Z,4.72
2019-06-01T14:57:08.425Z,4.60
2019-06-01T14:59:41.416Z,3.92
2019-06-01T15:02:10.575Z,4.62
2019-06-01T15:04:39.976Z,5.70
2019-06-01T15:07:09.330Z,4.87
2019-06-01T15:09:43.121Z,6.00
2019-06-01T15:12:10.167Z,5.80
2019-06-01T15:14:46.615Z,4.87
2019-06-01T15:17:18.592Z,5.17
2019-06-01T15:19:50.164Z,4.20
2019-06-01T15:22:19.307Z,3.10
2019-06-01T15:24:50.363Z,3.17
2019-06-01T15:27:19.237Z,3.50
2019-06-01T15:29:48.245Z,4.50
2019-06-01T15:32:17.322Z,5.03
2019-06-01T15:34:46.453Z,4.83
2019-06-01T15:37:15.654Z,3.75
2019-06-01T15:39:44.910Z,4.50
2019-06-01T15:42:16.563Z,4.00
2019-06-01T15:44:45.634Z,4.15
2019-06-01T15:47:14.815Z,5.05
2019-06-01T15:49:43.969Z,5.17
2019-06-01T15:52:13.114Z,4.70
2019-06-01T15:54:42.426Z,4.80
2019-06-01T15:57:11.544Z,5.30
2019-06-01T15:59:43.227Z,4.67
2019-06-01T16:02:17.916Z,4.47
2019-06-01T16:04:47.070Z,3.85
2019-06-01T16:07:16.187Z,4.83
2019-06-01T16:09:45.197Z,4.08
2019-06-01T16:12:14.335Z,3.87
2019-06-01T16:14:43.447Z,3.60
2019-06-01T16:17:12.584Z,3.45
2019-06-01T16:19:42.031Z,3.75
2019-06-01T16:22:11.225Z,4.42
2019-06-01T16:24:40.418Z,3.90
2019-06-01T16:27:22.598Z,3.60
2019-06-01T16:29:51.448Z,3.67
2019-06-01T16:32:20.618Z,3.05
2019-06-01T16:34:49.708Z,2.70
2019-06-01T16:37:21.783Z,2.70
2019-06-01T16:40:01.664Z,2.90
2019-06-01T16:42:20.382Z,3.00
2019-06-01T16:44:49.292Z,2.90
2019-06-01T16:47:18.189Z,2.80
2019-06-01T16:49:47.086Z,3.15
2019-06-01T16:52:15.961Z,2.70
2019-06-01T16:54:44.852Z,2.67
2019-06-01T16:57:13.765Z,2.52
2019-06-01T16:59:42.657Z,2.62
2019-06-01T17:02:12.025Z,2.80
2019-06-01T17:04:40.907Z,2.92
2019-06-01T17:07:09.880Z,2.90
2019-06-01T17:09:38.794Z,2.90
2019-06-01T17:12:07.891Z,3.05
2019-06-01T17:14:36.768Z,2.80
2019-06-01T17:17:07.353Z,2.70
2019-06-01T17:19:34.847Z,2.58
2019-06-01T17:22:03.734Z,2.87
2019-06-01T17:24:32.633Z,2.80
2019-06-01T17:27:02.122Z,2.83
2019-06-01T17:29:30.463Z,2.77
2019-06-01T17:32:14.341Z,3.10
2019-06-01T17:34:28.297Z,2.83
2019-06-01T17:36:57.173Z,2.65
2019-06-01T17:39:26.080Z,2.95
2019-06-01T17:41:54.969Z,3.00
2019-06-01T17:44:23.859Z,3.00
2019-06-01T17:46:54.067Z,2.77
2019-06-01T17:49:21.662Z,3.00
2019-06-01T17:51:50.574Z,2.50
2019-06-01T17:54:19.473Z,2.85
2019-06-01T17:56:48.370Z,2.72
2019-06-01T17:59:17.244Z,2.72
2019-06-01T18:01:46.146Z,2.40
2019-06-01T18:04:15.049Z,3.00
2019-06-01T18:06:43.980Z,2.50
2019-06-01T18:09:12.865Z,2.67
2019-06-01T18:11:41.735Z,2.65
2019-06-01T18:14:10.720Z,2.70
2019-06-01T18:16:39.624Z,2.45
2019-06-01T18:19:08.661Z,2.72
2019-06-01T18:21:37.554Z,2.52
2019-06-01T18:24:07.921Z,2.52
2019-06-01T18:26:35.429Z,2.40
2019-06-01T18:29:04.493Z,2.60
2019-06-01T18:31:33.319Z,2.77
2019-06-01T18:34:03.210Z,2.70
2019-06-01T18:36:31.108Z,2.65
2019-06-01T18:38:59.998Z,2.45
2019-06-01T18:41:28.896Z,2.70
2019-06-01T18:43:57.787Z,2.70
2019-06-01T18:46:26.709Z,2.25
2019-06-01T18:48:55.579Z,2.40
2019-06-01T18:51:24.479Z,2.22
2019-06-01T18:53:53.344Z,2.70
2019-06-01T18:56:22.272Z,3.08
2019-06-01T18:58:51.155Z,3.30
2019-06-01T19:01:21.144Z,3.70
2019-06-01T19:03:48.953Z,3.77
2019-06-01T19:06:17.853Z,3.92
2019-06-01T19:08:46.730Z,4.60
2019-06-01T19:11:31.690Z,4.75
2019-06-01T19:13:44.560Z,5.30
2019-06-01T19:16:14.322Z,5.33
2019-06-01T19:18:42.334Z,5.17
2019-06-01T19:21:11.240Z,5.40
2019-06-01T19:23:40.156Z,5.70
2019-06-01T19:26:13.062Z,5.58
2019-06-01T19:28:38.101Z,5.62
2019-06-01T19:31:07.043Z,6.10
2019-06-01T19:33:35.902Z,6.20
2019-06-01T19:36:04.847Z,6.00
2019-06-01T19:38:33.739Z,6.00
2019-06-01T19:41:02.762Z,5.55
2019-06-01T19:43:31.614Z,4.70
2019-06-01T19:46:00.514Z,5.00
2019-06-01T19:48:29.391Z,5.05
2019-06-01T19:50:58.274Z,4.80
2019-06-01T19:53:27.188Z,5.00
2019-06-01T19:55:56.091Z,4.50
2019-06-01T19:58:24.995Z,4.72
2019-06-01T20:00:53.908Z,4.60
2019-06-01T20:03:23.925Z,5.40
2019-06-01T20:05:51.693Z,5.35
2019-06-01T20:08:20.587Z,4.28
2019-06-01T20:10:49.560Z,4.95
2019-06-01T20:13:19.314Z,4.92
2019-06-01T20:15:47.273Z,5.03
2019-06-01T20:18:17.173Z,5.25
2019-06-01T20:20:45.065Z,4.42
2019-06-01T20:23:15.151Z,5.20
2019-06-01T20:25:42.825Z,4.97
2019-06-01T20:28:11.787Z,4.45
2019-06-01T20:30:40.618Z,4.35
2019-06-01T20:33:09.544Z,4.87
2019-06-01T20:35:38.436Z,4.65
2019-06-01T20:38:07.440Z,4.72
2019-06-01T20:40:36.345Z,3.90
2019-06-01T20:43:05.332Z,4.47
2019-06-01T20:45:34.204Z,5.90
2019-06-01T20:48:03.074Z,5.30
2019-06-01T20:50:32.001Z,4.87
2019-06-01T20:53:00.871Z,5.00
2019-06-01T20:55:29.775Z,4.72
2019-06-01T20:57:58.649Z,4.55
2019-06-01T21:00:31.103Z,4.17
2019-06-01T21:02:56.428Z,4.70
2019-06-01T21:05:25.377Z,4.97
2019-06-01T21:07:57.035Z,4.55
2019-06-01T21:10:24.189Z,4.55
2019-06-01T21:12:52.047Z,4.72
2019-06-01T21:15:21.297Z,4.40
2019-06-01T21:17:50.425Z,4.85
2019-06-01T21:20:25.391Z,4.70
2019-06-01T21:22:47.633Z,4.10
2019-06-01T21:25:16.738Z,4.45
2019-06-01T21:27:45.435Z,4.67
2019-06-01T21:30:16.094Z,5.05
2019-06-01T21:32:43.248Z,5.62
2019-06-01T21:35:12.130Z,4.80
2019-06-01T21:37:41.047Z,4.62
2019-06-01T21:40:09.934Z,5.20
2019-06-01T21:42:39.997Z,4.92
2019-06-01T21:45:07.778Z,5.53
2019-06-01T21:47:36.671Z,4.75
2019-06-01T21:50:05.575Z,4.65
2019-06-01T21:52:34.480Z,4.28
2019-06-01T21:55:03.356Z,4.72
2019-06-01T21:57:32.306Z,4.47
2019-06-01T22:00:01.179Z,4.80
2019-06-01T22:02:30.068Z,5.10
2019-06-01T22:04:58.954Z,4.40
2019-06-01T22:07:27.856Z,5.05
2019-06-01T22:09:56.760Z,4.83
2019-06-01T22:12:25.785Z,4.90
2019-06-01T22:14:54.549Z,4.42
2019-06-01T22:17:23.733Z,4.85
2019-06-01T22:19:52.329Z,5.15
2019-06-01T22:22:21.708Z,4.12
2019-06-01T22:24:50.116Z,4.17
2019-06-01T22:27:20.106Z,4.10
2019-06-01T22:29:47.923Z,3.60
2019-06-01T22:32:16.798Z,4.65
2019-06-01T22:34:45.742Z,4.35
2019-06-01T22:37:14.629Z,3.83
2019-06-01T22:39:43.513Z,4.45
2019-06-01T22:42:12.452Z,4.17
2019-06-01T22:44:41.314Z,4.40
2019-06-01T22:47:10.199Z,4.58
2019-06-01T22:49:39.115Z,4.28
2019-06-01T22:52:08.070Z,4.80
2019-06-01T22:54:36.956Z,4.78
2019-06-01T22:57:05.939Z,4.20
2019-06-01T22:59:34.818Z,4.73
2019-06-01T23:02:03.726Z,3.50
2019-06-01T23:04:32.599Z,3.50
2019-06-01T23:07:01.528Z,4.10
2019-06-01T23:09:31.676Z,4.50
2019-06-01T23:11:59.337Z,4.60
2019-06-01T23:14:29.371Z,4.75
2019-06-01T23:16:57.131Z,4.53
2019-06-01T23:19:26.024Z,4.33
2019-06-01T23:21:54.944Z,4.17
2019-06-01T23:24:24.012Z,4.47
2019-06-01T23:26:52.757Z,4.07
2019-06-01T23:29:22.268Z,4.37
2019-06-01T23:31:50.622Z,4.30
2019-06-01T23:34:19.482Z,4.40
2019-06-01T23:36:48.378Z,4.33
2019-06-01T23:39:17.259Z,4.42
2019-06-01T23:41:46.142Z,4.13
2019-06-01T23:44:15.021Z,4.40
2019-06-01T23:46:43.928Z,4.47
2019-06-01T23:49:12.825Z,4.40
2019-06-01T23:51:41.711Z,4.27
2019-06-01T23:54:10.591Z,5.10
2019-06-01T23:56:39.501Z,5.40
2019-06-01T23:59:08.390Z,4.97
